Time;durP1;ratioP1;P1;durP2;ratioP2;P2;SDS_P1;SDS_P2;PMS_P1;PMS_P2;Temp;Humidity;BMP_temperature;BMP_pressure;BME280_temperature;BME280_humidity;BME280_pressure;Samples;Min_cycle;Max_cycle;Signal;HPM_P1;HPM_P2
2023/01/12 00:01:57;;;;;;;12.30;2.70;;;;;;;-7.18;100.00;99676.95;107004;1274;22524;-67
2023/01/12 00:04:25;;;;;;;10.70;3.30;;;;;;;-7.19;100.00;99671.05;106930;1274;25396;-66
2023/01/12 00:06:53;;;;;;;12.80;3.20;;;;;;;-7.21;100.00;99670.41;107002;1274;23270;-66
2023/01/12 00:09:21;;;;;;;9.60;2.70;;;;;;;-7.24;100.00;99671.59;106960;1274;22560;-68
2023/01/12 00:11:48;;;;;;;12.00;2.80;;;;;;;-7.26;100.00;99669.05;106140;1275;1003003;-67
2023/01/12 00:14:16;;;;;;;7.50;2.80;;;;;;;-7.28;100.00;99666.14;106917;1274;22979;-67
2023/01/12 00:16:43;;;;;;;7.50;3.10;;;;;;;-7.28;100.00;99669.15;106891;1275;25465;-67
2023/01/12 00:19:12;;;;;;;7.80;2.70;;;;;;;-7.29;100.00;99670.05;106234;1275;1003861;-67
2023/01/12 00:21:45;;;;;;;9.60;3.40;;;;;;;-7.28;100.00;99665.63;106939;1275;22599;-67
2023/01/12 00:24:12;;;;;;;8.30;2.80;;;;;;;-7.28;100.00;99649.52;106202;1274;1002984;-66
2023/01/12 00:26:40;;;;;;;12.50;3.10;;;;;;;-7.29;100.00;99651.30;106889;1274;22780;-66
2023/01/12 00:29:07;;;;;;;10.80;2.90;;;;;;;-7.29;100.00;99647.29;106296;1274;1003474;-67
2023/01/12 00:31:34;;;;;;;7.70;3.10;;;;;;;-7.30;100.00;99642.23;107006;1275;22748;-66
2023/01/12 00:34:01;;;;;;;7.10;1.90;;;;;;;-7.31;100.00;99641.75;106968;1274;22640;-65
2023/01/12 00:36:29;;;;;;;8.90;2.60;;;;;;;-7.30;100.00;99642.95;106937;1275;25357;-66
2023/01/12 00:38:56;;;;;;;6.20;2.60;;;;;;;-7.29;100.00;99637.85;106270;1274;1002528;-66
2023/01/12 00:46:55;;;;;;;5.00;2.00;;;;;;;-7.34;100.00;99625.11;106968;1274;22591;-67
2023/01/12 00:49:23;;;;;;;14.80;3.10;;;;;;;-7.34;100.00;99614.59;106194;1274;1002923;-66
2023/01/12 00:51:50;;;;;;;10.40;3.20;;;;;;;-7.36;100.00;99612.59;106887;1251;25290;-66
2023/01/12 00:54:18;;;;;;;7.00;2.40;;;;;;;-7.37;100.00;99611.20;106288;1257;1003157;-65
2023/01/12 00:56:46;;;;;;;6.80;3.40;;;;;;;-7.36;100.00;99603.81;106106;1274;1002970;-66
2023/01/12 00:59:13;;;;;;;10.00;2.60;;;;;;;-7.35;100.00;99587.67;107061;1274;25547;-66
2023/01/12 01:01:41;;;;;;;7.30;2.30;;;;;;;-7.33;100.00;99582.67;106348;1274;1003240;-69
2023/01/12 01:04:08;;;;;;;7.20;2.60;;;;;;;-7.33;100.00;99578.28;106975;1274;25278;-67
2023/01/12 01:06:37;;;;;;;10.80;3.40;;;;;;;-7.33;100.00;99574.27;106336;1274;1002936;-66
2023/01/12 01:09:05;;;;;;;12.30;3.20;;;;;;;-7.35;100.00;99573.80;107030;1274;24320;-66
2023/01/12 01:11:33;;;;;;;13.30;2.70;;;;;;;-7.35;100.00;99568.74;107093;1275;25355;-66
2023/01/12 01:14:00;;;;;;;4.50;2.30;;;;;;;-7.35;100.00;99565.96;107133;1274;22620;-67
2023/01/12 01:16:28;;;;;;;8.20;3.10;;;;;;;-7.37;100.00;99563.58;106288;1275;1003173;-65
2023/01/12 01:18:56;;;;;;;5.20;2.60;;;;;;;-7.36;100.00;99568.82;106935;1274;22684;-66
2023/01/12 01:21:24;;;;;;;5.30;2.40;;;;;;;-7.36;100.00;99566.67;106357;1274;1003458;-67
2023/01/12 01:23:52;;;;;;;9.30;2.60;;;;;;;-7.35;100.00;99564.73;106347;1274;1003049;-68
2023/01/12 01:26:21;;;;;;;9.50;2.50;;;;;;;-7.34;100.00;99560.31;106944;1274;22683;-66
2023/01/12 01:28:49;;;;;;;4.20;2.50;;;;;;;-7.34;100.00;99558.88;106984;1274;25683;-67
2023/01/12 01:31:19;;;;;;;2.80;1.90;;;;;;;-7.33;100.00;99554.09;107084;1274;22769;-67
2023/01/12 01:33:47;;;;;;;5.10;2.20;;;;;;;-7.32;100.00;99547.76;106242;1275;1002910;-67
2023/01/12 01:36:14;;;;;;;7.70;2.10;;;;;;;-7.31;100.00;99549.27;106979;1274;25481;-68
2023/01/12 01:38:43;;;;;;;6.00;2.60;;;;;;;-7.31;100.00;99554.88;106209;1274;1003116;-67
2023/01/12 01:41:35;;;;;;;3.80;2.30;;;;;;;-7.31;100.00;99552.45;107083;1274;25561;-66
2023/01/12 01:44:24;;;;;;;6.50;2.60;;;;;;;-7.30;100.00;99550.13;106324;1274;1003553;-66
2023/01/12 01:46:53;;;;;;;7.40;2.70;;;;;;;-7.30;100.00;99551.01;106801;1274;24320;-67
2023/01/12 01:49:29;;;;;;;8.30;2.80;;;;;;;-7.30;100.00;99551.01;106291;1274;1003014;-68
2023/01/12 01:52:03;;;;;;;10.90;2.60;;;;;;;-7.30;100.00;99551.34;106272;1274;1003976;-69
2023/01/12 01:54:33;;;;;;;2.40;1.90;;;;;;;-7.31;100.00;99558.58;107059;1274;25294;-68
2023/01/12 01:57:05;;;;;;;10.30;2.70;;;;;;;-7.31;100.00;99556.30;106348;1274;1003463;-67
2023/01/12 01:59:33;;;;;;;5.20;2.30;;;;;;;-7.30;100.00;99553.11;106803;1274;22556;-67
2023/01/12 02:02:01;;;;;;;14.80;3.00;;;;;;;-7.30;100.00;99549.45;106231;1274;1002975;-66
2023/01/12 02:04:29;;;;;;;8.10;2.50;;;;;;;-7.32;100.00;99549.17;106360;1274;1003344;-66
2023/01/12 02:06:56;;;;;;;8.70;2.80;;;;;;;-7.33;100.00;99547.30;106997;1254;22568;-66
2023/01/12 02:09:27;;;;;;;10.70;2.90;;;;;;;-7.32;100.00;99546.91;106013;1274;1003789;-67
2023/01/12 02:17:33;;;;;;;6.00;2.40;;;;;;;-7.32;100.00;99534.79;106119;1274;1003279;-66
2023/01/12 02:20:39;;;;;;;9.70;2.30;;;;;;;-7.33;100.00;99537.81;106307;1274;1002883;-68
2023/01/12 02:23:29;;;;;;;4.70;2.80;;;;;;;-7.33;100.00;99545.02;107055;1274;22586;-67
2023/01/12 02:26:21;;;;;;;8.60;2.80;;;;;;;-7.33;100.00;99548.86;107015;1274;24217;-67
2023/01/12 02:29:09;;;;;;;6.10;2.20;;;;;;;-7.33;100.00;99544.67;106131;1274;1003060;-68
2023/01/12 02:31:48;;;;;;;3.20;2.10;;;;;;;-7.34;100.00;99541.36;107057;1274;22994;-69
2023/01/12 02:34:34;;;;;;;7.60;2.30;;;;;;;-7.35;100.00;99541.57;106191;1274;1003638;-67
2023/01/12 02:37:36;;;;;;;2.40;2.00;;;;;;;-7.35;100.00;99539.83;106912;1274;22646;-67
2023/01/12 02:40:31;;;;;;;5.50;2.10;;;;;;;-7.36;100.00;99529.73;106236;1274;1003556;-67
2023/01/12 02:43:05;;;;;;;4.50;2.20;;;;;;;-7.37;100.00;99524.70;106848;1263;22569;-68
2023/01/12 02:45:41;;;;;;;3.30;2.20;;;;;;;-7.37;100.00;99519.27;106902;1274;22587;-69
2023/01/12 02:48:12;;;;;;;14.70;3.40;;;;;;;-7.36;100.00;99520.79;107027;1274;22529;-66
2023/01/12 02:50:48;;;;;;;7.40;3.20;;;;;;;-7.35;100.00;99510.41;106925;1258;22766;-68
2023/01/12 02:53:23;;;;;;;9.20;2.90;;;;;;;-7.34;100.00;99507.23;106940;1274;23865;-67
2023/01/12 02:55:51;;;;;;;9.20;3.40;;;;;;;-7.35;100.00;99502.18;107049;1274;24234;-67
2023/01/12 02:58:20;;;;;;;7.10;3.00;;;;;;;-7.34;100.00;99499.86;106244;1274;1003039;-69
2023/01/12 03:00:48;;;;;;;5.70;2.30;;;;;;;-7.33;100.00;99501.42;106236;1274;1003048;-67
2023/01/12 03:03:16;;;;;;;5.80;2.60;;;;;;;-7.34;100.00;99490.58;107009;1274;24240;-68
2023/01/12 03:05:43;;;;;;;4.60;2.10;;;;;;;-7.32;100.00;99483.34;106247;1274;1003091;-66
2023/01/12 03:08:14;;;;;;;4.30;2.30;;;;;;;-7.30;100.00;99484.81;107070;1275;22535;-67
2023/01/12 03:10:45;;;;;;;8.90;3.00;;;;;;;-7.29;100.00;99478.98;106343;1274;1002818;-66
2023/01/12 03:13:14;;;;;;;8.20;2.80;;;;;;;-7.28;100.00;99465.09;106974;1274;25266;-66
2023/01/12 03:15:45;;;;;;;6.90;2.50;;;;;;;-7.27;100.00;99456.79;107010;1274;22527;-68
2023/01/12 03:18:42;;;;;;;13.20;3.20;;;;;;;-7.26;100.00;99461.27;106120;1274;1002928;-67
2023/01/12 03:21:43;;;;;;;6.50;3.40;;;;;;;-7.23;100.00;99459.97;107082;1274;22468;-66
2023/01/12 03:24:12;;;;;;;6.00;3.00;;;;;;;-7.23;100.00;99452.61;107002;1274;22680;-68
2023/01/12 03:26:49;;;;;;;6.50;2.90;;;;;;;-7.23;100.00;99447.52;106326;1274;1003490;-67
2023/01/12 03:29:33;;;;;;;9.50;3.10;;;;;;;-7.22;100.00;99449.75;107114;1274;22556;-67
2023/01/12 03:32:00;;;;;;;10.00;2.80;;;;;;;-7.22;100.00;99451.50;106944;1274;24320;-67
2023/01/12 03:34:28;;;;;;;4.90;2.50;;;;;;;-7.21;100.00;99444.64;106110;1274;1002898;-68
2023/01/12 03:37:05;;;;;;;6.70;3.20;;;;;;;-7.20;100.00;99441.43;107039;1274;25437;-68
2023/01/12 03:39:39;;;;;;;9.10;3.00;;;;;;;-7.20;100.00;99436.86;106190;1274;1003037;-67
2023/01/12 03:42:09;;;;;;;4.30;2.70;;;;;;;-7.20;100.00;99437.91;106235;1274;1003070;-67
2023/01/12 03:44:59;;;;;;;8.20;2.80;;;;;;;-7.18;100.00;99434.86;106978;1274;22816;-68
2023/01/12 03:47:28;;;;;;;7.60;3.10;;;;;;;-7.16;100.00;99425.83;106972;1274;26705;-67
2023/01/12 03:50:13;;;;;;;12.10;2.90;;;;;;;-7.14;100.00;99420.11;106900;1274;22527;-68
2023/01/12 03:52:41;;;;;;;10.00;2.80;;;;;;;-7.12;100.00;99411.95;106290;1274;1003555;-67
2023/01/12 03:55:10;;;;;;;10.90;2.60;;;;;;;-7.10;100.00;99407.30;107081;1274;25402;-66
2023/01/12 03:57:37;;;;;;;4.70;2.50;;;;;;;-7.09;100.00;99398.33;107005;1274;25587;-67
2023/01/12 04:00:08;;;;;;;7.50;2.70;;;;;;;-7.08;100.00;99392.33;106239;1274;1002838;-66
2023/01/12 04:02:38;;;;;;;4.20;2.60;;;;;;;-7.09;100.00;99382.01;106914;1274;22524;-66
2023/01/12 04:05:06;;;;;;;6.70;2.70;;;;;;;-7.08;100.00;99383.55;106213;1274;1002998;-66
2023/01/12 04:07:33;;;;;;;7.60;3.20;;;;;;;-7.07;100.00;99374.90;106810;1274;27257;-66
2023/01/12 04:10:00;;;;;;;6.90;2.60;;;;;;;-7.06;100.00;99367.17;106235;1274;1003413;-68
2023/01/12 04:12:27;;;;;;;3.10;2.40;;;;;;;-7.06;100.00;99364.73;106848;1274;22782;-69
2023/01/12 04:14:55;;;;;;;4.80;2.30;;;;;;;-7.07;100.00;99357.38;106284;1274;1004131;-68
2023/01/12 04:17:24;;;;;;;7.90;2.90;;;;;;;-7.06;100.00;99351.23;106987;1274;22573;-66
2023/01/12 04:19:51;;;;;;;3.60;2.50;;;;;;;-7.06;100.00;99347.38;106964;1274;25575;-66
2023/01/12 04:25:05;;;;;;;4.30;2.60;;;;;;;-7.05;100.00;99338.91;106905;1274;24364;-69
2023/01/12 04:27:35;;;;;;;3.70;2.10;;;;;;;-7.04;100.00;99334.81;107004;1274;24198;-69
2023/01/12 04:30:03;;;;;;;10.10;2.80;;;;;;;-7.03;100.00;99338.45;106971;1274;22608;-68
2023/01/12 04:32:30;;;;;;;4.30;2.40;;;;;;;-7.03;100.00;99328.98;106260;1274;1003086;-68
2023/01/12 04:34:58;;;;;;;11.90;3.20;;;;;;;-7.02;100.00;99329.64;107047;1274;23106;-68
2023/01/12 04:37:25;;;;;;;14.30;2.90;;;;;;;-7.02;100.00;99320.33;106930;1274;22622;-68
2023/01/12 04:39:53;;;;;;;4.30;2.20;;;;;;;-7.00;100.00;99319.23;106303;1274;1003176;-67
2023/01/12 04:45:07;;;;;;;9.50;2.30;;;;;;;-6.98;100.00;99304.38;106245;1274;1002889;-67
2023/01/12 04:47:34;;;;;;;8.40;2.70;;;;;;;-6.98;100.00;99297.75;107106;1274;24164;-67
2023/01/12 04:50:02;;;;;;;7.20;2.50;;;;;;;-6.99;100.00;99299.00;106872;1274;24266;-67
2023/01/12 04:52:29;;;;;;;7.80;3.00;;;;;;;-6.98;100.00;99297.05;107041;1274;23000;-67
2023/01/12 04:54:57;;;;;;;6.80;2.40;;;;;;;-6.98;100.00;99291.77;106225;1274;1002966;-67
2023/01/12 04:57:24;;;;;;;5.70;2.50;;;;;;;-6.99;100.00;99289.17;106922;1274;24323;-68
2023/01/12 04:59:51;;;;;;;10.60;2.50;;;;;;;-6.99;100.00;99285.35;106979;1274;24234;-69
2023/01/12 05:02:18;;;;;;;4.40;2.60;;;;;;;-6.99;100.00;99278.52;106208;1274;1003043;-67
2023/01/12 05:04:46;;;;;;;7.20;3.10;;;;;;;-7.00;100.00;99276.08;106878;1274;22563;-68
2023/01/12 05:07:14;;;;;;;8.30;2.80;;;;;;;-7.01;100.00;99277.55;106319;1274;1002880;-65
2023/01/12 05:12:27;;;;;;;5.50;3.00;;;;;;;-7.02;100.00;99274.11;107102;1274;23051;-66
2023/01/12 05:14:54;;;;;;;4.30;2.60;;;;;;;-7.03;100.00;99274.17;106237;1274;1003032;-66
2023/01/12 05:17:22;;;;;;;7.70;2.70;;;;;;;-7.05;100.00;99274.06;106990;1274;24849;-68
2023/01/12 05:19:49;;;;;;;7.50;3.10;;;;;;;-7.06;100.00;99278.02;107076;1274;22531;-67
2023/01/12 05:22:16;;;;;;;5.50;2.70;;;;;;;-7.08;100.00;99277.95;106335;1274;1016157;-67
2023/01/12 05:24:43;;;;;;;7.00;2.20;;;;;;;-7.09;100.00;99287.42;106957;1274;24225;-67
2023/01/12 05:27:11;;;;;;;4.90;2.90;;;;;;;-7.08;100.00;99280.38;106925;1274;22520;-66
2023/01/12 05:29:38;;;;;;;10.60;3.10;;;;;;;-7.08;100.00;99281.41;106282;1274;1002836;-67
2023/01/12 05:32:05;;;;;;;8.10;3.40;;;;;;;-7.06;100.00;99278.70;106793;1274;24214;-66
2023/01/12 05:34:32;;;;;;;8.60;3.30;;;;;;;-7.06;100.00;99274.45;107003;1274;24231;-66
2023/01/12 05:37:00;;;;;;;5.30;2.70;;;;;;;-7.06;100.00;99268.00;106904;1274;24201;-65
2023/01/12 05:39:27;;;;;;;9.10;3.10;;;;;;;-7.06;100.00;99266.23;107016;1266;22530;-68
2023/01/12 05:44:40;;;;;;;7.10;2.90;;;;;;;-7.06;100.00;99254.16;106344;1274;1003516;-67
2023/01/12 05:47:07;;;;;;;9.00;2.50;;;;;;;-7.07;100.00;99256.46;106837;1274;25493;-66
2023/01/12 05:49:35;;;;;;;9.50;3.40;;;;;;;-7.08;100.00;99257.06;106932;1274;22543;-66
2023/01/12 05:52:02;;;;;;;7.20;2.90;;;;;;;-7.09;100.00;99269.39;106261;1274;1002851;-67
2023/01/12 05:54:30;;;;;;;13.40;4.80;;;;;;;-7.08;100.00;99272.31;106918;1275;24215;-67
2023/01/12 05:56:57;;;;;;;14.60;5.10;;;;;;;-7.05;100.00;99264.45;106931;1274;25626;-67
2023/01/12 05:59:25;;;;;;;10.30;3.90;;;;;;;-7.04;100.00;99262.11;106277;1274;1003712;-67
2023/01/12 06:01:52;;;;;;;14.50;5.70;;;;;;;-7.04;100.00;99259.69;106958;1274;26820;-67
2023/01/12 06:04:19;;;;;;;12.30;4.40;;;;;;;-7.05;100.00;99257.42;106083;1274;1003734;-67
2023/01/12 06:06:47;;;;;;;7.40;3.60;;;;;;;-7.06;100.00;99250.98;107068;1274;22523;-67
2023/01/12 06:09:16;;;;;;;7.40;3.70;;;;;;;-7.07;100.00;99247.90;106994;1274;24208;-69
2023/01/12 06:14:31;;;;;;;4.30;2.60;;;;;;;-7.10;100.00;99244.02;106165;1274;1014690;-67
2023/01/12 06:16:58;;;;;;;7.70;3.70;;;;;;;-7.08;100.00;99221.69;107081;1274;24414;-66
2023/01/12 06:19:26;;;;;;;6.90;3.70;;;;;;;-7.09;100.00;99212.10;107094;1274;23249;-66
2023/01/12 06:21:54;;;;;;;7.50;2.70;;;;;;;-7.11;100.00;99210.45;107106;1274;22831;-65
2023/01/12 06:24:21;;;;;;;7.90;2.90;;;;;;;-7.07;100.00;99206.92;106349;1274;1003444;-65
2023/01/12 06:26:48;;;;;;;5.50;3.30;;;;;;;-7.03;100.00;99201.80;107077;1274;24005;-69
2023/01/12 06:29:16;;;;;;;4.90;2.70;;;;;;;-7.00;100.00;99189.00;106345;1274;1015164;-69
2023/01/12 06:31:43;;;;;;;9.70;2.90;;;;;;;-6.96;100.00;99184.78;107028;1274;24331;-69
2023/01/12 06:34:10;;;;;;;5.50;3.20;;;;;;;-6.92;100.00;99183.85;107081;1274;22520;-70
2023/01/12 06:36:38;;;;;;;11.10;3.80;;;;;;;-6.91;100.00;99174.50;107127;1274;26705;-68
2023/01/12 06:39:05;;;;;;;13.00;4.20;;;;;;;-6.90;100.00;99175.20;106229;1274;1003279;-68
2023/01/12 06:44:19;;;;;;;12.20;4.30;;;;;;;-6.90;100.00;99169.07;107082;1274;22706;-69
2023/01/12 06:46:46;;;;;;;12.50;4.30;;;;;;;-6.89;100.00;99171.61;106196;1270;1003048;-68
2023/01/12 06:49:15;;;;;;;7.10;3.40;;;;;;;-6.87;100.00;99169.38;107038;1272;25371;-68
2023/01/12 06:51:43;;;;;;;6.50;3.10;;;;;;;-6.84;100.00;99169.09;106803;1270;24201;-67
2023/01/12 06:54:10;;;;;;;12.60;3.30;;;;;;;-6.87;100.00;99171.17;107021;1272;24190;-67
2023/01/12 06:56:38;;;;;;;10.90;3.40;;;;;;;-6.93;100.00;99178.65;106851;1269;22520;-66
2023/01/12 06:59:05;;;;;;;13.40;4.30;;;;;;;-6.96;100.00;99186.02;106208;1273;1002936;-70
2023/01/12 07:01:32;;;;;;;5.60;3.50;;;;;;;-7.01;100.00;99189.80;106833;1273;23422;-67
2023/01/12 07:03:59;;;;;;;9.50;3.40;;;;;;;-7.04;100.00;99191.88;106132;1269;1003544;-67
2023/01/12 07:06:27;;;;;;;15.30;4.20;;;;;;;-7.06;100.00;99198.08;107052;1273;24305;-68
2023/01/12 07:08:54;;;;;;;9.70;3.90;;;;;;;-7.03;100.00;99200.95;106976;1274;22530;-67
2023/01/12 07:11:21;;;;;;;6.60;3.70;;;;;;;-7.00;100.00;99198.85;106319;1267;1002884;-65
2023/01/12 07:13:49;;;;;;;12.00;4.30;;;;;;;-6.98;100.00;99193.50;107260;1269;22526;-73
2023/01/12 07:16:16;;;;;;;7.90;3.70;;;;;;;-6.94;100.00;99187.84;106908;1270;1003092;-75
2023/01/12 07:18:46;;;;;;;6.50;3.40;;;;;;;-6.92;100.00;99174.23;107683;1270;24373;-75
2023/01/12 07:21:15;;;;;;;4.90;2.90;;;;;;;-6.91;100.00;99178.36;107102;1273;1003173;-75
2023/01/12 07:23:43;;;;;;;5.00;2.60;;;;;;;-6.91;100.00;99171.74;107899;1269;22555;-75
2023/01/12 07:26:10;;;;;;;8.60;3.40;;;;;;;-6.93;100.00;99173.39;107138;1267;1002938;-75
2023/01/12 07:28:38;;;;;;;7.20;2.80;;;;;;;-6.92;100.00;99172.85;106842;1272;1003771;-77
2023/01/12 07:31:11;;;;;;;8.30;3.10;;;;;;;-6.90;100.00;99166.05;108204;1268;22526;-78
2023/01/12 07:33:38;;;;;;;4.60;3.00;;;;;;;-6.88;100.00;99164.70;106913;1267;1002625;-76
2023/01/12 07:36:07;;;;;;;7.00;3.50;;;;;;;-6.84;100.00;99155.60;108173;1275;24250;-76
2023/01/12 07:38:36;;;;;;;7.60;2.80;;;;;;;-6.81;100.00;99158.56;107943;1274;25636;-77
2023/01/12 07:41:04;;;;;;;9.10;3.10;;;;;;;-6.81;100.00;99157.71;108156;1274;22746;-81
2023/01/12 07:43:32;;;;;;;9.00;3.00;;;;;;;-6.80;100.00;99150.10;107371;1274;1003097;-77
2023/01/12 07:45:59;;;;;;;10.90;3.00;;;;;;;-6.76;100.00;99146.23;107821;1274;22724;-78
2023/01/12 07:48:27;;;;;;;6.10;3.80;;;;;;;-6.74;100.00;99150.84;108327;1274;22519;-77
2023/01/12 07:50:57;;;;;;;8.50;3.70;;;;;;;-6.72;100.00;99142.48;107899;1274;23893;-77
2023/01/12 07:53:25;;;;;;;6.60;2.90;;;;;;;-6.70;100.00;99142.71;108258;1274;22479;-77
2023/01/12 07:55:52;;;;;;;14.40;3.40;;;;;;;-6.66;100.00;99135.67;108010;1274;22527;-78
2023/01/12 07:58:20;;;;;;;7.20;3.30;;;;;;;-6.62;100.00;99127.59;107063;1274;1002858;-77
2023/01/12 08:00:49;;;;;;;7.30;3.40;;;;;;;-6.58;100.00;99122.27;107874;1274;22469;-76
2023/01/12 08:03:16;;;;;;;4.40;2.80;;;;;;;-6.52;100.00;99110.14;107936;1274;22825;-77
2023/01/12 08:05:43;;;;;;;9.10;3.60;;;;;;;-6.45;100.00;99103.30;107125;1274;1003093;-76
2023/01/12 08:08:11;;;;;;;5.10;3.30;;;;;;;-6.39;100.00;99102.44;107838;1274;24222;-76
2023/01/12 08:10:39;;;;;;;13.40;4.60;;;;;;;-6.34;100.00;99107.38;107195;1274;1003138;-78
2023/01/12 08:13:07;;;;;;;9.30;3.20;;;;;;;-6.31;100.00;99108.10;107651;1254;23821;-75
2023/01/12 08:15:37;;;;;;;6.10;3.40;;;;;;;-6.32;100.00;99110.28;107610;1275;23125;-76
2023/01/12 08:18:08;;;;;;;7.70;3.50;;;;;;;-6.34;100.00;99118.98;106974;1275;1003761;-77
2023/01/12 08:20:36;;;;;;;8.60;4.30;;;;;;;-6.32;100.00;99127.48;106990;1275;1002947;-75
2023/01/12 08:23:13;;;;;;;15.10;4.90;;;;;;;-6.31;100.00;99122.13;107257;1275;1003232;-75
2023/01/12 08:25:43;;;;;;;15.90;4.70;;;;;;;-6.33;100.00;99125.56;107623;1274;23985;-79
2023/01/12 08:28:19;;;;;;;12.20;4.50;;;;;;;-6.35;100.00;99134.11;106661;1274;1003778;-75
2023/01/12 08:30:46;;;;;;;6.10;3.20;;;;;;;-6.36;100.00;99144.00;107714;1274;22660;-77
2023/01/12 08:33:13;;;;;;;9.90;3.80;;;;;;;-6.35;100.00;99146.05;107156;1275;22526;-66
2023/01/12 08:35:41;;;;;;;17.70;4.40;;;;;;;-6.35;100.00;99147.27;106821;1274;24316;-67
2023/01/12 08:38:09;;;;;;;6.20;3.60;;;;;;;-6.34;100.00;99156.31;106073;1275;1003833;-66
2023/01/12 08:46:09;;;;;;;9.90;3.80;;;;;;;-6.34;100.00;99161.79;106878;1275;22655;-67
2023/01/12 08:48:37;;;;;;;6.40;3.40;;;;;;;-6.33;100.00;99167.15;106078;1275;1003269;-67
2023/01/12 08:51:06;;;;;;;7.50;3.40;;;;;;;-6.28;100.00;99166.57;106797;1275;24412;-66
2023/01/12 08:53:34;;;;;;;7.00;3.50;;;;;;;-6.23;100.00;99163.29;106157;1269;1003111;-66
2023/01/12 08:56:02;;;;;;;8.00;4.30;;;;;;;-6.19;100.00;99166.89;106062;1269;1003305;-67
2023/01/12 08:58:30;;;;;;;8.40;3.90;;;;;;;-6.16;100.00;99163.04;106038;1275;1003015;-67
2023/01/12 09:01:08;;;;;;;10.40;3.40;;;;;;;-6.15;100.00;99160.71;106937;1276;22722;-68
2023/01/12 09:03:36;;;;;;;5.10;2.70;;;;;;;-6.19;100.00;99178.14;106031;1272;1003231;-66
2023/01/12 09:06:31;;;;;;;8.90;3.10;;;;;;;-6.24;100.00;99182.62;106817;1272;22552;-66
2023/01/12 09:09:00;;;;;;;7.80;3.20;;;;;;;-6.26;100.00;99192.23;106046;1270;1002994;-65
2023/01/12 09:11:28;;;;;;;9.40;4.00;;;;;;;-6.27;100.00;99195.41;106806;1275;22709;-66
2023/01/12 09:13:57;;;;;;;5.90;3.30;;;;;;;-6.24;100.00;99198.27;106744;1272;22591;-68
2023/01/12 09:16:25;;;;;;;7.00;3.70;;;;;;;-6.20;100.00;99199.94;106912;1275;24903;-67
2023/01/12 09:18:53;;;;;;;10.80;3.00;;;;;;;-6.14;100.00;99192.05;106781;1272;22616;-67
2023/01/12 09:21:21;;;;;;;8.30;4.00;;;;;;;-6.06;100.00;99186.89;106731;1275;24361;-64
2023/01/12 09:23:49;;;;;;;10.40;4.00;;;;;;;-5.99;100.00;99183.29;106096;1271;1002851;-67
2023/01/12 09:26:18;;;;;;;11.90;3.20;;;;;;;-5.93;100.00;99178.94;106804;1276;22524;-65
2023/01/12 09:28:45;;;;;;;6.30;3.20;;;;;;;-5.91;100.00;99172.13;106798;1276;26516;-67
2023/01/12 09:31:17;;;;;;;8.70;3.80;;;;;;;-5.90;100.00;99177.17;106325;1276;1003540;-70
2023/01/12 09:33:45;;;;;;;11.40;3.80;;;;;;;-5.87;100.00;99184.21;107507;1275;24302;-69
2023/01/12 09:36:17;;;;;;;10.50;4.60;;;;;;;-5.82;100.00;99183.91;106620;1275;22571;-67
2023/01/12 09:53:20;;;;;;;5.80;3.50;;;;;;;-5.55;100.00;99202.34;104693;1295;557403;-67
2023/01/12 09:55:58;;;;;;;7.10;3.30;;;;;;;-5.51;100.00;99248.14;105830;1287;216604;-67
2023/01/12 09:58:28;;;;;;;16.60;4.60;;;;;;;-5.52;100.00;99272.61;106340;1284;22601;-67
2023/01/12 10:00:56;;;;;;;11.20;4.60;;;;;;;-5.53;100.00;99294.61;105600;1284;1003722;-67
2023/01/12 10:03:34;;;;;;;11.40;5.20;;;;;;;-5.50;100.00;99298.14;106314;1284;22558;-74
2023/01/12 10:06:01;;;;;;;11.60;5.40;;;;;;;-5.45;100.00;99298.89;105619;1284;1003514;-77
2023/01/12 10:08:50;;;;;;;14.20;6.30;;;;;;;-5.37;100.00;99299.69;105506;1284;1002851;-77
2023/01/12 10:11:53;;;;;;;9.60;4.10;;;;;;;-5.31;100.00;99288.11;106316;1284;22527;-77
2023/01/12 10:14:32;;;;;;;13.40;5.20;;;;;;;-5.27;100.00;99284.52;106206;1285;22765;-68
2023/01/12 10:17:08;;;;;;;17.70;5.20;;;;;;;-5.24;100.00;99287.34;106246;1284;22659;-67
2023/01/12 10:20:01;;;;;;;12.10;5.40;;;;;;;-5.25;100.00;99293.58;106150;1278;24248;-69
2023/01/12 10:22:35;;;;;;;11.00;4.50;;;;;;;-5.27;100.00;99302.29;105605;1277;1003538;-66
2023/01/12 10:25:24;;;;;;;10.80;4.10;;;;;;;-5.29;100.00;99308.53;105383;1284;1002502;-68
2023/01/12 10:27:53;;;;;;;10.50;4.70;;;;;;;-5.30;100.00;99316.50;105435;1277;1002854;-76
2023/01/12 10:30:32;;;;;;;11.70;3.80;;;;;;;-5.31;100.00;99319.19;105513;1281;1003595;-76
2023/01/12 10:33:18;;;;;;;15.50;3.70;;;;;;;-5.33;100.00;99327.55;106012;1278;23058;-74
2023/01/12 10:36:03;;;;;;;12.50;3.80;;;;;;;-5.36;100.00;99343.21;105910;1278;24307;-76
2023/01/12 10:38:33;;;;;;;12.40;3.80;;;;;;;-5.36;100.00;99352.32;108368;1278;1002864;-75
2023/01/12 10:41:17;;;;;;;11.50;4.50;;;;;;;-5.34;100.00;99355.89;107284;1278;1002243;-75
2023/01/12 10:44:12;;;;;;;13.30;4.40;;;;;;;-5.29;100.00;99352.83;106191;1279;23909;-77
2023/01/12 10:46:39;;;;;;;8.70;3.40;;;;;;;-5.26;100.00;99351.60;105580;1282;1003352;-76
2023/01/12 10:49:17;;;;;;;12.30;3.60;;;;;;;-5.26;100.00;99354.23;105348;1283;1003680;-78
2023/01/12 10:51:55;;;;;;;7.00;3.40;;;;;;;-5.22;100.00;99356.98;105454;1278;1003298;-78
2023/01/12 10:54:33;;;;;;;13.30;4.50;;;;;;;-5.21;100.00;99358.80;106342;1278;22529;-77
2023/01/12 10:57:21;;;;;;;11.60;4.60;;;;;;;-5.19;100.00;99358.00;105402;1284;1003830;-77
2023/01/12 10:59:50;;;;;;;10.50;4.80;;;;;;;-5.14;100.00;99358.61;106266;1284;25640;-76
2023/01/12 11:02:17;;;;;;;10.90;4.40;;;;;;;-5.09;100.00;99354.14;106251;1284;22533;-78
2023/01/12 11:04:47;;;;;;;8.30;3.80;;;;;;;-5.10;100.00;99355.94;105589;1284;1002713;-77
2023/01/12 11:07:15;;;;;;;11.20;4.60;;;;;;;-5.11;100.00;99361.61;105654;1284;1003640;-76
2023/01/12 11:09:42;;;;;;;8.00;3.90;;;;;;;-5.10;100.00;99371.21;105499;1284;1003316;-76
2023/01/12 11:12:20;;;;;;;15.30;4.60;;;;;;;-5.09;100.00;99375.72;105941;1284;22603;-76
2023/01/12 11:15:23;;;;;;;12.40;4.60;;;;;;;-5.05;100.00;99372.67;106160;1284;24343;-76
2023/01/12 11:18:18;;;;;;;12.00;4.40;;;;;;;-5.02;100.00;99378.86;105675;1291;23929;-74
2023/01/12 11:20:50;;;;;;;17.20;5.90;;;;;;;-5.03;100.00;99382.23;106255;1284;22661;-77
2023/01/12 11:23:38;;;;;;;11.50;4.20;;;;;;;-5.03;100.00;99390.70;106216;1284;22566;-77
2023/01/12 11:26:51;;;;;;;12.40;4.70;;;;;;;-5.08;100.00;99401.36;106354;1284;25373;-79
2023/01/12 11:29:26;;;;;;;;;;;;;;;-5.14;100.00;99419.96;105495;1284;1003401;-74
2023/01/12 11:31:58;;;;;;;10.10;4.10;;;;;;;-5.18;100.00;99425.99;105373;1281;1002949;-76
2023/01/12 11:34:29;;;;;;;5.10;3.30;;;;;;;-5.17;100.00;99427.88;106306;1284;25620;-79
2023/01/12 11:37:10;;;;;;;8.40;4.20;;;;;;;-5.11;100.00;99420.54;106299;1278;22533;-81
2023/01/12 11:39:46;;;;;;;10.00;4.00;;;;;;;-5.04;100.00;99415.17;105459;1284;1003720;-81
2023/01/12 11:45:24;;;;;;;11.30;3.90;;;;;;;-5.03;100.00;99416.70;105681;1285;1002425;-79
2023/01/12 11:47:58;;;;;;;7.60;3.80;;;;;;;-5.03;100.00;99420.40;106153;1285;25696;-78
2023/01/12 11:50:31;;;;;;;6.10;3.40;;;;;;;-5.04;100.00;99421.67;105478;1285;1003752;-78
2023/01/12 11:52:59;;;;;;;9.40;3.80;;;;;;;-5.00;100.00;99417.43;106255;1285;25359;-79
2023/01/12 11:55:40;;;;;;;13.50;4.00;;;;;;;-4.96;100.00;99415.41;106286;1285;22639;-79
2023/01/12 11:58:07;;;;;;;13.10;4.70;;;;;;;-4.90;100.00;99421.27;106556;1279;25494;-79
2023/01/12 12:01:00;;;;;;;9.10;3.70;;;;;;;-4.88;100.00;99419.02;105437;1284;1003038;-77
2023/01/12 12:04:00;;;;;;;11.30;4.60;;;;;;;-4.86;100.00;99425.74;106298;1277;22539;-77
2023/01/12 12:06:57;;;;;;;7.70;3.80;;;;;;;-4.79;100.00;99424.66;106176;1279;24217;-78
2023/01/12 12:09:25;;;;;;;8.10;4.00;;;;;;;-4.80;100.00;99426.79;106402;1284;22540;-66
2023/01/12 12:12:11;;;;;;;8.50;3.90;;;;;;;-4.83;100.00;99444.40;105559;1281;1003002;-67
2023/01/12 12:14:57;;;;;;;9.50;4.20;;;;;;;-4.84;100.00;99439.15;105444;1281;1002927;-69
2023/01/12 12:17:25;;;;;;;9.20;4.00;;;;;;;-4.87;100.00;99457.13;105511;1284;1002783;-64
2023/01/12 12:19:59;;;;;;;11.40;4.50;;;;;;;-4.89;100.00;99464.45;106210;1284;25447;-68
2023/01/12 12:23:03;;;;;;;12.30;5.80;;;;;;;-4.88;100.00;99469.29;106348;1284;22551;-69